createdAt,value
2019-05-07T00:01:16.833Z,100435.19
2019-05-07T00:05:19.178Z,100436.81
2019-05-07T00:09:23.337Z,100432.92
2019-05-07T00:13:25.472Z,100425.06
2019-05-07T00:17:27.710Z,100422.14
2019-05-07T00:21:29.831Z,100413.04
2019-05-07T00:25:32.928Z,100414.55
2019-05-07T00:29:35.265Z,100409.14
2019-05-07T00:33:38.337Z,100405.80
2019-05-07T00:37:55.538Z,100418.23
2019-05-07T00:42:04.423Z,100409.69
2019-05-07T00:46:12.936Z,100407.22
2019-05-07T00:50:22.502Z,100395.20
2019-05-07T00:54:24.977Z,100393.11
2019-05-07T00:58:27.499Z,100391.67
2019-05-07T01:02:32.191Z,100387.41
2019-05-07T01:06:33.800Z,100389.31
2019-05-07T01:10:35.826Z,100378.44
2019-05-07T01:14:38.549Z,100380.32
2019-05-07T01:18:42.082Z,100371.41
2019-05-07T01:22:44.709Z,100370.67
2019-05-07T01:26:46.890Z,100375.11
2019-05-07T01:30:49.133Z,100365.42
2019-05-07T01:34:55.924Z,100369.16
2019-05-07T01:38:58.110Z,100370.59
2019-05-07T01:43:02.438Z,100367.45
2019-05-07T01:47:04.161Z,100365.24
2019-05-07T01:51:06.297Z,100357.06
2019-05-07T01:55:08.654Z,100358.70
2019-05-07T01:59:12.086Z,100356.35
2019-05-07T02:03:23.054Z,100350.06
2019-05-07T02:07:35.541Z,100353.95
2019-05-07T02:11:42.237Z,100348.95
2019-05-07T02:15:57.400Z,100352.38
2019-05-07T02:19:48.622Z,100352.31
2019-05-07T02:23:52.373Z,100342.68
2019-05-07T02:27:54.630Z,100338.06
2019-05-07T02:31:56.870Z,100333.83
2019-05-07T02:35:59.308Z,100321.01
2019-05-07T02:40:23.479Z,100319.64
2019-05-07T02:44:25.789Z,100317.72
2019-05-07T02:48:33.482Z,100307.77
2019-05-07T02:52:56.856Z,100306.10
2019-05-07T02:56:59.001Z,100300.78
2019-05-07T03:01:04.450Z,100300.16
2019-05-07T03:05:05.638Z,100298.56
2019-05-07T03:09:08.255Z,100298.53
2019-05-07T03:13:13.448Z,100294.27
2019-05-07T03:17:14.537Z,100295.64
2019-05-07T03:21:19.389Z,100292.95
2019-05-07T03:25:26.315Z,100293.47
2019-05-07T03:29:28.504Z,100280.03
2019-05-07T03:33:47.188Z,100283.78
2019-05-07T03:37:48.520Z,100274.99
2019-05-07T03:41:53.084Z,100270.03
2019-05-07T03:46:03.857Z,100268.80
2019-05-07T03:50:08.009Z,100267.48
2019-05-07T03:54:10.254Z,100267.64
2019-05-07T03:58:14.599Z,100260.34
2019-05-07T04:02:16.244Z,100261.45
2019-05-07T04:06:18.478Z,100262.91
2019-05-07T04:10:23.178Z,100260.68
2019-05-07T04:14:27.272Z,100265.92
2019-05-07T04:18:35.228Z,100264.03
2019-05-07T04:22:37.542Z,100261.55
2019-05-07T04:26:43.158Z,100259.09
2019-05-07T04:30:45.476Z,100255.05
2019-05-07T04:35:04.183Z,100251.84
2019-05-07T04:39:08.645Z,100252.94
2019-05-07T04:43:13.608Z,100248.84
2019-05-07T04:47:32.256Z,100240.95
2019-05-07T04:51:24.122Z,100240.55
2019-05-07T04:55:26.355Z,100244.60
2019-05-07T04:59:28.641Z,100230.75
2019-05-07T05:03:34.607Z,100237.56
2019-05-07T05:07:35.395Z,100234.45
2019-05-07T05:11:37.544Z,100234.83
2019-05-07T05:15:39.801Z,100229.38
2019-05-07T05:19:43.896Z,100225.91
2019-05-07T05:24:12.628Z,100218.42
2019-05-07T05:28:15.250Z,100213.72
2019-05-07T05:32:17.405Z,100206.34
2019-05-07T05:36:22.021Z,100206.61
2019-05-07T05:40:23.546Z,100209.34
2019-05-07T05:44:31.860Z,100202.75
2019-05-07T05:48:33.616Z,100199.61
2019-05-07T05:52:42.582Z,100197.41
2019-05-07T05:56:52.368Z,100187.83
2019-05-07T06:01:13.113Z,100185.15
2019-05-07T06:05:35.742Z,100182.28
2019-05-07T06:10:02.448Z,100171.57
2019-05-07T06:14:08.135Z,100169.38
2019-05-07T06:18:29.350Z,100163.81
2019-05-07T06:22:52.745Z,100163.70
2019-05-07T06:26:54.189Z,100156.85
2019-05-07T06:30:56.230Z,100157.66
2019-05-07T06:34:58.240Z,100156.55
2019-05-07T06:39:08.390Z,100148.30
2019-05-07T06:43:38.439Z,100142.63
2019-05-07T06:47:42.464Z,100144.43
2019-05-07T06:51:44.341Z,100131.72
2019-05-07T06:55:48.310Z,100133.97
2019-05-07T06:59:54.180Z,100127.66
2019-05-07T07:04:03.601Z,100123.88
2019-05-07T07:08:32.539Z,100122.59
2019-05-07T07:12:34.867Z,100118.77
2019-05-07T07:16:37.033Z,100106.63
2019-05-07T07:20:39.309Z,100112.10
2019-05-07T07:24:42.423Z,100103.73
2019-05-07T07:28:44.763Z,100098.41
2019-05-07T07:32:48.263Z,100095.69
2019-05-07T07:37:18.446Z,100100.72
2019-05-07T07:41:39.365Z,100092.32
2019-05-07T07:45:42.116Z,100090.17
2019-05-07T07:49:44.650Z,100085.61
2019-05-07T07:53:46.686Z,100086.09
2019-05-07T07:58:07.741Z,100076.97
2019-05-07T08:02:44.130Z,100076.65
2019-05-07T08:06:48.250Z,100074.53
2019-05-07T08:10:51.982Z,100066.64
2019-05-07T08:14:54.340Z,100069.31
2019-05-07T08:18:56.592Z,100069.10
2019-05-07T08:22:58.850Z,100069.91
2019-05-07T08:27:02.417Z,100065.44
2019-05-07T08:31:27.532Z,100061.52
2019-05-07T08:35:33.360Z,100063.42
2019-05-07T08:39:35.596Z,100058.25
2019-05-07T08:43:37.622Z,100053.59
2019-05-07T08:47:46.599Z,100052.16
2019-05-07T08:52:03.048Z,100050.15
2019-05-07T08:56:04.526Z,100045.50
2019-05-07T09:00:07.418Z,100052.16
2019-05-07T09:04:09.666Z,100057.78
2019-05-07T09:08:12.844Z,100061.80
2019-05-07T09:12:16.275Z,100064.16
2019-05-07T09:16:18.386Z,100062.97
2019-05-07T09:20:22.706Z,100068.89
2019-05-07T09:24:26.214Z,100064.95
2019-05-07T09:28:46.523Z,100061.16
2019-05-07T09:33:02.338Z,100062.59
2019-05-07T09:37:05.991Z,100058.25
2019-05-07T09:41:11.908Z,100048.18
2019-05-07T09:45:14.955Z,100056.83
2019-05-07T09:49:17.146Z,100051.72
2019-05-07T09:53:19.423Z,100058.47
2019-05-07T09:57:30.932Z,100058.08
2019-05-07T10:01:25.829Z,100051.41
2019-05-07T10:05:27.855Z,100052.04
2019-05-07T10:09:30.082Z,100048.31
2019-05-07T10:13:45.858Z,100056.34
2019-05-07T10:17:52.665Z,100052.66
2019-05-07T10:21:55.322Z,100057.77
2019-05-07T10:25:58.999Z,100056.74
2019-05-07T10:30:02.325Z,100052.30
2019-05-07T10:34:06.334Z,100049.83
2019-05-07T10:38:08.542Z,100046.52
2019-05-07T10:42:12.345Z,100046.34
2019-05-07T10:46:32.507Z,100049.42
2019-05-07T10:50:38.898Z,100051.28
2019-05-07T10:54:38.969Z,100038.03
2019-05-07T10:58:41.741Z,100036.97
2019-05-07T11:02:44.300Z,100023.35
2019-05-07T11:06:48.152Z,100017.35
2019-05-07T11:10:52.071Z,100017.50
2019-05-07T11:14:54.511Z,100010.66
2019-05-07T11:18:56.649Z,100012.50
2019-05-07T11:22:59.023Z,100013.16
2019-05-07T11:27:02.426Z,100004.77
2019-05-07T11:31:05.064Z,100004.45
2019-05-07T11:35:07.451Z,100004.61
2019-05-07T11:39:12.214Z,100005.27
2019-05-07T11:43:33.309Z,99996.83
2019-05-07T11:47:36.013Z,99996.73
2019-05-07T11:51:53.751Z,99994.52
2019-05-07T11:55:56.032Z,99993.03
2019-05-07T11:59:58.031Z,99990.26
2019-05-07T12:04:02.005Z,99980.25
2019-05-07T12:08:04.408Z,99991.82
2019-05-07T12:12:06.911Z,99986.45
2019-05-07T12:16:13.503Z,99980.20
2019-05-07T12:20:13.195Z,99989.62
2019-05-07T12:24:16.654Z,99982.12
2019-05-07T12:28:18.967Z,99976.41
2019-05-07T12:32:48.810Z,99985.53
2019-05-07T12:36:52.428Z,99979.52
2019-05-07T12:40:54.668Z,99978.52
2019-05-07T12:44:56.915Z,99990.16
2019-05-07T12:48:59.033Z,99990.05
2019-05-07T12:53:07.397Z,99995.64
2019-05-07T12:57:09.343Z,99998.33
2019-05-07T13:01:32.806Z,100007.42
2019-05-07T13:05:35.165Z,100003.80
2019-05-07T13:09:38.350Z,99993.36
2019-05-07T13:13:42.382Z,99994.90
2019-05-07T13:17:44.949Z,99995.84
2019-05-07T13:21:49.982Z,99992.86
2019-05-07T13:25:52.276Z,99996.00
2019-05-07T13:29:54.442Z,99985.08
2019-05-07T13:33:57.441Z,99984.93
2019-05-07T13:38:17.337Z,99991.03
2019-05-07T13:42:46.303Z,99983.01
2019-05-07T13:46:52.866Z,99997.73
2019-05-07T13:50:54.532Z,99999.09
2019-05-07T13:54:56.850Z,99992.65
2019-05-07T13:58:59.087Z,99997.78
2019-05-07T14:03:03.222Z,100009.38
2019-05-07T14:07:05.316Z,100015.80
2019-05-07T14:11:07.576Z,100021.22
2019-05-07T14:15:10.027Z,100022.91
2019-05-07T14:19:12.941Z,100023.61
2019-05-07T14:23:15.296Z,100012.95
2019-05-07T14:27:17.443Z,100007.80
2019-05-07T14:31:19.795Z,100014.48
2019-05-07T14:35:32.735Z,100014.98
2019-05-07T14:39:35.138Z,100027.88
2019-05-07T14:43:42.781Z,100019.05
2019-05-07T14:47:45.310Z,100024.41
2019-05-07T14:51:49.008Z,100031.20
2019-05-07T14:55:51.404Z,100033.69
2019-05-07T14:59:53.625Z,100040.29
2019-05-07T15:03:56.058Z,100020.48
2019-05-07T15:08:08.321Z,100013.50
2019-05-07T15:12:02.289Z,100017.53
2019-05-07T15:16:06.328Z,100018.28
2019-05-07T15:20:08.784Z,100011.69
2019-05-07T15:24:12.697Z,100013.84
2019-05-07T15:28:14.947Z,100012.77
2019-05-07T15:32:17.301Z,100023.31
2019-05-07T15:36:19.539Z,100019.27
2019-05-07T15:40:22.509Z,100014.34
2019-05-07T15:44:25.113Z,100029.43
2019-05-07T15:48:27.134Z,100018.60
2019-05-07T15:52:57.665Z,100025.43
2019-05-07T15:56:52.729Z,100029.55
2019-05-07T16:00:55.027Z,100030.94
2019-05-07T16:04:57.163Z,100034.31
2019-05-07T16:09:04.472Z,100038.81
2019-05-07T16:13:08.614Z,100043.30
2019-05-07T16:17:24.543Z,100044.48
2019-05-07T16:21:26.760Z,100049.37
2019-05-07T16:25:29.317Z,100038.82
2019-05-07T16:29:33.748Z,100043.53
2019-05-07T16:33:35.479Z,100051.17
2019-05-07T16:37:37.906Z,100050.67
2019-05-07T16:41:42.044Z,100056.17
2019-05-07T16:45:44.057Z,100061.14
2019-05-07T16:49:46.236Z,100061.81
2019-05-07T16:53:48.453Z,100062.61
2019-05-07T16:58:02.845Z,100064.79
2019-05-07T17:02:11.531Z,100083.77
2019-05-07T17:06:13.805Z,100080.49
2019-05-07T17:10:16.053Z,100088.99
2019-05-07T17:14:18.162Z,100100.88
2019-05-07T17:18:22.172Z,100104.50
2019-05-07T17:22:24.359Z,100106.61
2019-05-07T17:26:26.908Z,100114.49
2019-05-07T17:30:29.142Z,100103.67
2019-05-07T17:34:31.379Z,100100.79
2019-05-07T17:38:33.664Z,100111.42
2019-05-07T17:42:35.829Z,100115.16
2019-05-07T17:46:38.129Z,100120.61
2019-05-07T17:50:57.960Z,100113.47
2019-05-07T17:55:02.170Z,100113.72
2019-05-07T17:59:04.330Z,100115.95
2019-05-07T18:03:37.960Z,100118.70
2019-05-07T18:07:42.050Z,100127.12
2019-05-07T18:11:44.370Z,100129.00
2019-05-07T18:15:47.629Z,100136.02
2019-05-07T18:19:50.881Z,100133.53
2019-05-07T18:23:53.206Z,100138.63
2019-05-07T18:27:55.529Z,100141.97
2019-05-07T18:32:01.348Z,100140.31
2019-05-07T18:36:04.846Z,100151.19
2019-05-07T18:40:07.191Z,100156.97
2019-05-07T18:44:12.822Z,100158.81
2019-05-07T18:48:13.352Z,100159.20
2019-05-07T18:52:15.598Z,100164.83
2019-05-07T18:56:17.805Z,100162.36
2019-05-07T19:00:26.454Z,100164.59
2019-05-07T19:04:30.259Z,100173.47
2019-05-07T19:08:35.631Z,100172.33
2019-05-07T19:12:39.011Z,100169.58
2019-05-07T19:16:43.063Z,100178.00
2019-05-07T19:20:45.750Z,100184.78
2019-05-07T19:24:48.310Z,100185.91
2019-05-07T19:28:50.599Z,100187.55
2019-05-07T19:32:52.868Z,100189.60
2019-05-07T19:36:55.178Z,100193.44
2019-05-07T19:40:57.383Z,100201.14
2019-05-07T19:44:59.556Z,100207.20
2019-05-07T19:49:02.772Z,100211.33
2019-05-07T19:53:06.286Z,100212.48
2019-05-07T19:57:11.840Z,100216.06
2019-05-07T20:01:15.924Z,100216.37
2019-05-07T20:05:18.368Z,100228.82
2019-05-07T20:09:24.327Z,100231.66
2019-05-07T20:13:27.405Z,100235.71
2019-05-07T20:17:31.404Z,100242.66
2019-05-07T20:21:35.205Z,100244.92
2019-05-07T20:25:37.468Z,100239.84
2019-05-07T20:29:39.529Z,100242.41
2019-05-07T20:33:44.536Z,100242.66
2019-05-07T20:37:46.674Z,100245.67
2019-05-07T20:41:48.820Z,100250.41
2019-05-07T20:45:51.859Z,100243.91
2019-05-07T20:49:54.058Z,100243.34
2019-05-07T20:54:15.223Z,100243.23
2019-05-07T20:58:17.452Z,100244.36
2019-05-07T21:02:19.822Z,100246.91
2019-05-07T21:06:22.545Z,100238.80
2019-05-07T21:10:24.793Z,100237.57
2019-05-07T21:14:27.127Z,100240.77
2019-05-07T21:18:29.342Z,100244.16
2019-05-07T21:22:32.026Z,100245.66
2019-05-07T21:26:34.208Z,100246.41
2019-05-07T21:30:36.437Z,100247.19
2019-05-07T21:34:38.669Z,100251.77
2019-05-07T21:38:42.605Z,100247.08
2019-05-07T21:42:44.958Z,100245.58
2019-05-07T21:46:47.102Z,100248.09
2019-05-07T21:50:49.385Z,100239.27
2019-05-07T21:55:06.651Z,100242.36
2019-05-07T21:59:12.678Z,100243.56
2019-05-07T22:03:17.025Z,100243.58
2019-05-07T22:07:19.340Z,100245.66
2019-05-07T22:11:22.980Z,100251.20
2019-05-07T22:16:13.351Z,100247.35
2019-05-07T22:20:15.614Z,100237.78
2019-05-07T22:24:18.058Z,100244.00
2019-05-07T22:28:21.984Z,100243.42
2019-05-07T22:32:46.435Z,100239.09
2019-05-07T22:36:48.783Z,100242.86
2019-05-07T22:40:55.744Z,100237.20
2019-05-07T22:44:59.279Z,100241.81
2019-05-07T22:49:03.059Z,100240.11
2019-05-07T22:53:05.589Z,100238.14
2019-05-07T22:57:19.581Z,100242.75
2019-05-07T23:01:22.609Z,100244.63
2019-05-07T23:05:25.067Z,100239.73
2019-05-07T23:09:27.197Z,100238.41
2019-05-07T23:13:31.751Z,100236.08
2019-05-07T23:17:33.312Z,100233.63
2019-05-07T23:21:35.620Z,100231.48
2019-05-07T23:25:39.506Z,100237.41
2019-05-07T23:29:43.837Z,100238.81
2019-05-07T23:33:45.908Z,100236.81
2019-05-07T23:37:48.228Z,100237.84
2019-05-07T23:41:58.221Z,100231.17
2019-05-07T23:46:02.205Z,100230.87
2019-05-07T23:50:04.459Z,100229.84
2019-05-07T23:54:06.658Z,100229.74
2019-05-07T23:58:08.878Z,100233.41
